createdAt,value
2023-03-11T00:01:49.195Z,7.67
2023-03-11T00:03:36.158Z,7.66
2023-03-11T00:05:20.189Z,7.60
2023-03-11T00:07:03.967Z,7.56
2023-03-11T00:08:43.060Z,7.57
2023-03-11T00:10:22.156Z,7.56
2023-03-11T00:11:54.180Z,7.48
2023-03-11T00:13:46.188Z,7.53
2023-03-11T00:15:30.214Z,7.47
2023-03-11T00:17:15.958Z,7.46
2023-03-11T00:19:01.598Z,7.40
2023-03-11T00:20:33.939Z,7.37
2023-03-11T00:22:06.169Z,7.29
2023-03-11T00:23:59.184Z,7.33
2023-03-11T00:25:24.647Z,7.32
2023-03-11T00:27:13.527Z,7.29
2023-03-11T00:29:06.176Z,7.27
2023-03-11T00:30:38.357Z,7.24
2023-03-11T00:32:17.797Z,7.24
2023-03-11T00:33:50.095Z,7.21
2023-03-11T00:35:29.139Z,7.17
2023-03-11T00:37:12.916Z,7.16
2023-03-11T00:38:33.466Z,7.18
2023-03-11T00:40:19.648Z,7.18
2023-03-11T00:44:11.914Z,7.18
2023-03-11T00:45:34.532Z,7.18
2023-03-11T00:47:15.757Z,7.16
2023-03-11T00:51:10.055Z,7.14
2023-03-11T00:52:38.174Z,7.20
2023-03-11T00:54:21.617Z,7.23
2023-03-11T00:56:05.349Z,7.22
2023-03-11T00:57:45.241Z,7.24
2023-03-11T00:59:19.725Z,7.26
2023-03-11T01:01:14.196Z,7.26
2023-03-11T01:03:06.877Z,7.30
2023-03-11T01:04:50.507Z,7.30
2023-03-11T01:06:44.738Z,7.33
2023-03-11T01:08:38.186Z,7.32
2023-03-11T01:10:22.043Z,7.37
2023-03-11T01:12:05.701Z,7.40
2023-03-11T01:13:37.349Z,7.41
2023-03-11T01:15:11.852Z,7.41
2023-03-11T01:17:05.162Z,7.41
2023-03-11T01:18:48.867Z,7.41
2023-03-11T01:20:32.761Z,7.42
2023-03-11T01:21:58.482Z,7.44
2023-03-11T01:23:28.936Z,7.43
2023-03-11T01:25:08.654Z,7.45
2023-03-11T01:26:42.492Z,7.45
2023-03-11T01:28:12.840Z,7.42
2023-03-11T01:29:33.484Z,7.43
2023-03-11T01:31:14.235Z,7.43
2023-03-11T01:32:57.977Z,7.42
2023-03-11T01:34:51.149Z,7.42
2023-03-11T01:36:30.630Z,7.41
2023-03-11T01:38:14.178Z,7.38
2023-03-11T01:39:58.127Z,7.45
2023-03-11T01:41:32.766Z,7.47
2023-03-11T01:43:17.379Z,7.47
2023-03-11T01:44:56.812Z,7.47
2023-03-11T01:46:40.630Z,7.44
2023-03-11T01:48:01.046Z,7.39
2023-03-11T01:49:32.953Z,7.37
2023-03-11T01:51:02.806Z,7.39
2023-03-11T01:52:32.054Z,7.35
2023-03-11T01:54:11.910Z,7.36
2023-03-11T01:55:46.451Z,7.35
2023-03-11T01:57:18.691Z,7.30
2023-03-11T01:58:51.618Z,7.32
2023-03-11T02:00:20.282Z,7.33
2023-03-11T02:02:04.573Z,7.29
2023-03-11T02:03:32.194Z,7.27
2023-03-11T02:05:15.987Z,7.27
2023-03-11T02:06:55.475Z,7.33
2023-03-11T02:08:39.006Z,7.36
2023-03-11T02:10:22.769Z,7.35
2023-03-11T02:11:55.169Z,7.34
2023-03-11T02:13:38.093Z,7.32
2023-03-11T02:15:00.998Z,7.30
2023-03-11T02:16:44.609Z,7.31
2023-03-11T02:18:29.483Z,7.31
2023-03-11T02:20:01.846Z,7.30
2023-03-11T02:21:34.282Z,7.30
2023-03-11T02:23:18.995Z,7.30
2023-03-11T02:24:52.180Z,7.31
2023-03-11T02:26:35.731Z,7.32
2023-03-11T02:28:19.416Z,7.31
2023-03-11T02:29:58.724Z,7.33
2023-03-11T02:31:30.688Z,7.34
2023-03-11T02:32:51.640Z,7.31
2023-03-11T02:34:16.220Z,7.34
2023-03-11T02:35:50.673Z,7.37
2023-03-11T02:37:22.739Z,7.36
2023-03-11T02:39:04.018Z,7.35
2023-03-11T02:40:32.247Z,7.41
2023-03-11T02:42:15.881Z,7.41
2023-03-11T02:44:05.686Z,7.40
2023-03-11T02:45:30.938Z,7.39
2023-03-11T02:46:59.253Z,7.39
2023-03-11T02:48:42.895Z,7.44
2023-03-11T02:50:17.524Z,7.38
2023-03-11T02:52:01.418Z,7.45
2023-03-11T02:53:31.213Z,7.46
2023-03-11T02:55:15.260Z,7.46
2023-03-11T02:56:52.590Z,7.48
2023-03-11T02:58:26.650Z,7.48
2023-03-11T03:00:07.537Z,7.48
2023-03-11T03:01:59.489Z,7.48
2023-03-11T03:03:33.992Z,7.46
2023-03-11T03:05:08.255Z,7.46
2023-03-11T03:07:01.169Z,7.46
2023-03-11T03:08:44.673Z,7.45
2023-03-11T03:10:19.059Z,7.45
2023-03-11T03:12:00.886Z,7.42
2023-03-11T03:13:37.113Z,7.41
2023-03-11T03:15:20.832Z,7.46
2023-03-11T03:17:05.332Z,7.42
2023-03-11T03:18:41.439Z,7.48
2023-03-11T03:20:10.926Z,7.38
2023-03-11T03:21:41.207Z,7.48
2023-03-11T03:23:15.944Z,7.50
2023-03-11T03:24:51.036Z,7.51
2023-03-11T03:26:13.769Z,7.50
2023-03-11T03:27:47.217Z,7.49
2023-03-11T03:29:30.723Z,7.50
2023-03-11T03:31:11.937Z,7.50
2023-03-11T03:32:47.281Z,7.51
2023-03-11T03:34:12.341Z,7.49
2023-03-11T03:35:51.840Z,7.51
2023-03-11T03:37:38.638Z,7.47
2023-03-11T03:39:11.086Z,7.49
2023-03-11T03:40:45.815Z,7.48
2023-03-11T03:42:29.314Z,7.51
2023-03-11T03:44:13.020Z,7.48
2023-03-11T03:45:47.472Z,7.47
2023-03-11T03:47:19.510Z,7.46
2023-03-11T03:49:03.465Z,7.45
2023-03-11T03:50:35.147Z,7.45
2023-03-11T03:52:09.263Z,7.42
2023-03-11T03:53:53.128Z,7.41
2023-03-11T03:55:27.400Z,7.42
2023-03-11T03:56:50.806Z,7.41
2023-03-11T03:58:34.612Z,7.39
2023-03-11T04:00:21.610Z,7.39
2023-03-11T04:02:02.340Z,7.39
2023-03-11T04:03:41.489Z,7.29
2023-03-11T04:05:28.285Z,7.35
2023-03-11T04:07:03.711Z,7.29
2023-03-11T04:08:42.767Z,7.29
2023-03-11T04:10:34.840Z,7.26
2023-03-11T04:12:18.898Z,7.25
2023-03-11T04:13:51.562Z,7.23
2023-03-11T04:15:35.406Z,7.23
2023-03-11T04:17:07.644Z,7.20
2023-03-11T04:18:45.131Z,7.17
2023-03-11T04:20:19.993Z,7.12
2023-03-11T04:21:53.395Z,7.10
2023-03-11T04:23:26.298Z,7.07
2023-03-11T04:24:48.226Z,7.04
2023-03-11T04:26:10.818Z,7.05
2023-03-11T04:27:46.127Z,7.05
2023-03-11T04:29:29.913Z,7.05
2023-03-11T04:31:13.849Z,7.03
2023-03-11T04:32:45.979Z,7.03
2023-03-11T04:34:25.921Z,7.01
2023-03-11T04:35:58.635Z,7.02
2023-03-11T04:37:33.012Z,7.02
2023-03-11T04:39:16.524Z,7.06
2023-03-11T04:41:01.174Z,7.06
2023-03-11T04:42:35.190Z,7.02
2023-03-11T04:44:19.322Z,7.00
2023-03-11T04:45:56.354Z,6.98
2023-03-11T04:47:35.264Z,6.96
2023-03-11T04:49:08.139Z,6.97
2023-03-11T04:50:31.907Z,6.98
2023-03-11T04:52:06.482Z,6.96
2023-03-11T04:53:50.030Z,6.94
2023-03-11T04:55:21.601Z,6.96
2023-03-11T04:57:06.589Z,6.93
2023-03-11T04:58:55.515Z,6.92
2023-03-11T05:00:25.765Z,6.87
2023-03-11T05:02:12.480Z,6.79
2023-03-11T05:03:58.816Z,6.76
2023-03-11T05:05:38.701Z,6.73
2023-03-11T05:07:23.750Z,6.69
2023-03-11T05:08:59.057Z,6.69
2023-03-11T05:10:39.038Z,6.63
2023-03-11T05:12:23.203Z,6.63
2023-03-11T05:14:08.432Z,6.64
2023-03-11T05:15:42.843Z,6.62
2023-03-11T05:17:26.546Z,6.60
2023-03-11T05:19:16.692Z,6.62
2023-03-11T05:20:42.226Z,6.57
2023-03-11T05:22:26.022Z,6.59
2023-03-11T05:23:47.049Z,6.57
2023-03-11T05:25:34.921Z,6.53
2023-03-11T05:27:19.135Z,6.49
2023-03-11T05:28:55.833Z,6.40
2023-03-11T05:30:39.877Z,6.37
2023-03-11T05:32:23.736Z,6.32
2023-03-11T05:33:52.131Z,6.22
2023-03-11T05:35:45.221Z,6.20
2023-03-11T05:37:17.510Z,6.11
2023-03-11T05:39:02.008Z,6.04
2023-03-11T05:40:36.846Z,5.84
2023-03-11T05:42:08.948Z,5.86
2023-03-11T05:44:02.268Z,5.81
2023-03-11T05:45:42.153Z,5.80
2023-03-11T05:47:25.702Z,5.83
2023-03-11T05:49:09.698Z,5.71
2023-03-11T05:50:53.950Z,5.69
2023-03-11T05:52:34.887Z,5.63
2023-03-11T05:54:26.007Z,5.55
2023-03-11T05:56:06.169Z,5.49
2023-03-11T05:57:58.203Z,5.42
2023-03-11T05:59:33.403Z,5.43
2023-03-11T06:01:09.737Z,5.37
2023-03-11T06:03:03.218Z,5.35
2023-03-11T06:04:35.438Z,5.32
2023-03-11T06:06:22.912Z,5.29
2023-03-11T06:08:06.851Z,5.26
2023-03-11T06:09:41.633Z,5.22
2023-03-11T06:11:07.282Z,5.24
2023-03-11T06:12:48.091Z,5.20
2023-03-11T06:14:38.049Z,5.18
2023-03-11T06:16:22.192Z,5.20
2023-03-11T06:18:12.210Z,5.18
2023-03-11T06:19:43.062Z,5.18
2023-03-11T06:21:26.481Z,5.13
2023-03-11T06:22:49.519Z,5.06
2023-03-11T06:24:23.586Z,5.03
2023-03-11T06:25:55.895Z,4.98
2023-03-11T06:27:31.214Z,4.97
2023-03-11T06:29:10.886Z,4.97
2023-03-11T06:30:54.504Z,4.98
2023-03-11T06:32:28.812Z,4.95
2023-03-11T06:33:59.601Z,4.91
2023-03-11T06:35:52.204Z,4.88
2023-03-11T06:37:24.306Z,4.81
2023-03-11T06:39:08.368Z,4.77
2023-03-11T06:40:55.893Z,4.63
2023-03-11T06:42:39.613Z,4.69
2023-03-11T06:44:14.925Z,4.73
2023-03-11T06:45:49.186Z,4.73
2023-03-11T06:47:21.915Z,4.77
2023-03-11T06:48:54.077Z,4.70
2023-03-11T06:50:38.174Z,4.65
2023-03-11T06:52:12.602Z,4.69
2023-03-11T06:53:44.547Z,4.67
2023-03-11T06:55:28.411Z,4.63
2023-03-11T06:57:00.619Z,4.65
2023-03-11T06:58:39.717Z,4.66
2023-03-11T07:00:24.025Z,4.63
2023-03-11T07:02:11.347Z,4.61
2023-03-11T07:03:51.196Z,4.59
2023-03-11T07:05:35.758Z,4.57
2023-03-11T07:07:17.296Z,4.59
2023-03-11T07:09:05.000Z,4.58
2023-03-11T07:10:49.246Z,4.53
2023-03-11T07:12:22.867Z,4.51
2023-03-11T07:14:02.666Z,4.47
2023-03-11T07:15:45.215Z,4.45
2023-03-11T07:17:39.245Z,4.41
2023-03-11T07:19:24.465Z,4.36
2023-03-11T07:21:08.153Z,4.30
2023-03-11T07:22:31.626Z,4.38
2023-03-11T07:24:16.317Z,4.38
2023-03-11T07:26:09.087Z,4.39
2023-03-11T07:27:56.141Z,4.36
2023-03-11T07:29:39.287Z,4.30
2023-03-11T07:31:11.708Z,4.23
2023-03-11T07:32:34.113Z,4.18
2023-03-11T07:34:10.540Z,4.12
2023-03-11T07:35:50.092Z,4.08
2023-03-11T07:37:24.565Z,4.05
2023-03-11T07:39:06.141Z,4.05
2023-03-11T07:40:33.373Z,4.01
2023-03-11T07:42:12.697Z,3.96
2023-03-11T07:43:45.692Z,3.93
2023-03-11T07:45:24.461Z,3.89
2023-03-11T07:47:08.707Z,3.82
2023-03-11T07:48:37.839Z,3.71
2023-03-11T07:50:21.497Z,3.61
2023-03-11T07:52:03.298Z,3.54
2023-03-11T07:53:46.432Z,3.56
2023-03-11T07:55:30.557Z,3.50
2023-03-11T07:57:05.103Z,3.49
2023-03-11T07:58:36.676Z,3.47
2023-03-11T08:00:20.303Z,3.38
2023-03-11T08:02:08.284Z,3.33
2023-03-11T08:03:52.189Z,3.27
2023-03-11T08:05:26.723Z,3.21
2023-03-11T08:06:58.984Z,3.23
2023-03-11T08:08:38.105Z,3.23
2023-03-11T08:10:10.400Z,3.21
2023-03-11T08:11:38.309Z,3.18
2023-03-11T08:13:13.821Z,3.18
2023-03-11T08:14:48.339Z,3.20
2023-03-11T08:16:20.548Z,3.22
2023-03-11T08:18:03.962Z,3.21
2023-03-11T08:19:35.984Z,3.20
2023-03-11T08:21:06.751Z,3.21
2023-03-11T08:22:58.141Z,3.17
2023-03-11T08:24:41.901Z,3.15
2023-03-11T08:26:25.811Z,3.14
2023-03-11T08:28:09.362Z,3.19
2023-03-11T08:29:32.489Z,3.11
2023-03-11T08:31:14.227Z,3.05
2023-03-11T08:32:44.288Z,3.04
2023-03-11T08:34:27.927Z,3.07
2023-03-11T08:36:18.607Z,3.00
2023-03-11T08:37:39.371Z,2.97
2023-03-11T08:39:23.728Z,2.91
2023-03-11T08:41:08.501Z,2.81
2023-03-11T08:42:53.468Z,2.82
2023-03-11T08:44:37.156Z,2.78
2023-03-11T08:46:21.861Z,2.74
2023-03-11T08:48:01.713Z,2.78
2023-03-11T08:49:45.919Z,2.75
2023-03-11T08:51:26.129Z,2.76
2023-03-11T08:53:18.477Z,2.70
2023-03-11T08:55:00.149Z,2.72
2023-03-11T08:56:49.621Z,2.70
2023-03-11T08:58:17.931Z,2.70
2023-03-11T08:59:38.381Z,2.69
2023-03-11T09:01:09.254Z,2.71
2023-03-11T09:02:48.638Z,2.69
2023-03-11T09:04:40.820Z,2.70
2023-03-11T09:06:24.758Z,2.63
2023-03-11T09:08:05.725Z,2.58
2023-03-11T09:09:37.706Z,2.58
2023-03-11T09:11:21.929Z,2.64
2023-03-11T09:12:53.912Z,2.65
2023-03-11T09:14:25.395Z,2.61
2023-03-11T09:16:00.812Z,2.65
2023-03-11T09:17:34.991Z,2.56
2023-03-11T09:19:06.266Z,2.44
2023-03-11T09:20:51.220Z,2.27
2023-03-11T09:22:30.924Z,2.09
2023-03-11T09:24:03.529Z,2.08
2023-03-11T09:25:47.157Z,2.08
2023-03-11T09:27:27.876Z,2.04
2023-03-11T09:28:59.750Z,1.96
2023-03-11T09:30:31.975Z,1.85
2023-03-11T09:32:11.094Z,1.79
2023-03-11T09:33:54.922Z,1.79
2023-03-11T09:35:26.963Z,1.69
2023-03-11T09:36:59.232Z,1.71
2023-03-11T09:38:34.013Z,1.71
2023-03-11T09:40:17.730Z,1.58
2023-03-11T09:42:01.517Z,1.54
2023-03-11T09:43:35.326Z,1.57
2023-03-11T09:45:19.175Z,1.47
2023-03-11T09:47:03.348Z,1.40
2023-03-11T09:48:42.462Z,1.36
2023-03-11T09:50:06.284Z,1.33
2023-03-11T09:51:38.238Z,1.42
2023-03-11T09:53:19.633Z,1.35
2023-03-11T09:54:53.851Z,1.41
2023-03-11T09:56:28.278Z,1.35
2023-03-11T09:58:02.702Z,1.32
2023-03-11T09:59:34.802Z,1.33
2023-03-11T10:01:07.175Z,1.35
2023-03-11T10:02:46.832Z,1.25
2023-03-11T10:04:26.025Z,1.17
2023-03-11T10:05:58.414Z,1.16
2023-03-11T10:07:22.801Z,1.22
2023-03-11T10:09:04.285Z,1.26
2023-03-11T10:10:43.001Z,1.28
2023-03-11T10:12:06.095Z,1.22
2023-03-11T10:13:31.379Z,1.20
2023-03-11T10:15:15.598Z,1.20
2023-03-11T10:16:41.493Z,1.20
2023-03-11T10:18:24.870Z,1.17
2023-03-11T10:20:08.915Z,1.08
2023-03-11T10:21:52.241Z,1.11
2023-03-11T10:23:36.421Z,1.11
2023-03-11T10:24:57.345Z,1.08
2023-03-11T10:26:32.104Z,1.18
2023-03-11T10:28:16.631Z,1.09
2023-03-11T10:29:39.072Z,1.09
2023-03-11T10:31:23.131Z,1.09
2023-03-11T10:32:55.687Z,1.02
2023-03-11T10:34:39.231Z,1.05
2023-03-11T10:36:23.892Z,1.08
2023-03-11T10:38:03.803Z,1.12
2023-03-11T10:39:38.735Z,1.23
2023-03-11T10:41:22.315Z,1.24
2023-03-11T10:43:11.355Z,1.23
2023-03-11T10:44:41.251Z,1.20
2023-03-11T10:46:24.940Z,1.16
2023-03-11T10:48:09.143Z,1.22
2023-03-11T10:49:43.683Z,1.21
2023-03-11T10:51:31.488Z,1.28
2023-03-11T10:53:03.870Z,1.30
2023-03-11T10:54:47.510Z,1.23
2023-03-11T10:56:31.410Z,1.20
2023-03-11T10:58:14.934Z,1.14
2023-03-11T10:59:59.209Z,1.13
2023-03-11T11:01:31.135Z,1.10
2023-03-11T11:03:03.026Z,1.07
2023-03-11T11:04:34.525Z,1.06
2023-03-11T11:06:18.554Z,1.13
2023-03-11T11:07:58.111Z,1.10
2023-03-11T11:09:31.720Z,1.07
2023-03-11T11:11:15.386Z,1.06
2023-03-11T11:13:08.259Z,1.03
2023-03-11T11:14:52.158Z,0.98
2023-03-11T11:16:14.613Z,1.01
2023-03-11T11:18:02.918Z,1.00
2023-03-11T11:19:46.633Z,1.03
2023-03-11T11:21:30.491Z,1.06
2023-03-11T11:23:14.845Z,1.07
2023-03-11T11:25:02.601Z,1.04
2023-03-11T11:26:43.130Z,0.96
2023-03-11T11:28:14.875Z,0.97
2023-03-11T11:30:07.173Z,1.05
2023-03-11T11:31:51.273Z,0.97
2023-03-11T11:33:13.951Z,1.08
2023-03-11T11:34:46.371Z,1.05
2023-03-11T11:36:29.890Z,0.99
2023-03-11T11:38:11.347Z,0.93
2023-03-11T11:39:56.268Z,0.94
2023-03-11T11:41:32.557Z,1.00
2023-03-11T11:43:04.088Z,0.89
2023-03-11T11:44:50.337Z,0.73
2023-03-11T11:46:34.024Z,0.84
2023-03-11T11:48:08.640Z,0.92
2023-03-11T11:49:52.061Z,0.83
2023-03-11T11:51:37.667Z,0.79
2023-03-11T11:53:12.833Z,0.80
2023-03-11T11:54:58.735Z,0.81
2023-03-11T11:56:42.141Z,0.59
2023-03-11T11:58:26.190Z,0.71
2023-03-11T12:00:09.543Z,0.75
2023-03-11T12:01:34.718Z,0.74
2023-03-11T12:03:00.506Z,0.71
2023-03-11T12:04:32.387Z,0.67
2023-03-11T12:06:16.345Z,0.65
2023-03-11T12:07:44.327Z,0.54
2023-03-11T12:09:14.898Z,0.57
2023-03-11T12:10:47.035Z,0.57
2023-03-11T12:12:19.272Z,0.50
2023-03-11T12:13:54.309Z,0.52
2023-03-11T12:15:17.019Z,0.51
2023-03-11T12:16:56.286Z,0.55
2023-03-11T12:18:39.645Z,0.58
2023-03-11T12:20:23.869Z,0.55
2023-03-11T12:22:11.703Z,0.50
2023-03-11T12:23:51.876Z,0.46
2023-03-11T12:25:33.350Z,0.46
2023-03-11T12:27:18.163Z,0.36
2023-03-11T12:28:52.863Z,0.33
2023-03-11T12:30:38.162Z,0.32
2023-03-11T12:32:30.344Z,0.31
2023-03-11T12:34:14.480Z,0.30
2023-03-11T12:35:59.210Z,0.31
2023-03-11T12:37:33.254Z,0.36
2023-03-11T12:39:17.319Z,0.39
2023-03-11T12:41:01.671Z,0.44
2023-03-11T12:42:45.243Z,0.51
2023-03-11T12:44:16.538Z,0.43
2023-03-11T12:45:57.437Z,0.47
2023-03-11T12:47:41.109Z,0.42
2023-03-11T12:49:26.215Z,0.32
2023-03-11T12:50:48.730Z,0.39
2023-03-11T12:52:37.288Z,0.34
2023-03-11T12:54:14.163Z,0.25
2023-03-11T12:56:06.474Z,0.33
2023-03-11T12:57:38.467Z,0.36
2023-03-11T12:59:22.632Z,0.31
2023-03-11T13:01:07.338Z,0.19
2023-03-11T13:02:48.937Z,0.18
2023-03-11T13:04:32.753Z,0.13
2023-03-11T13:06:17.105Z,0.12
2023-03-11T13:07:47.557Z,0.12
2023-03-11T13:09:21.493Z,0.06
2023-03-11T13:10:53.669Z,0.04
2023-03-11T13:12:37.045Z,0.06
2023-03-11T13:14:20.897Z,0.13
2023-03-11T13:16:00.492Z,0.07
2023-03-11T13:17:43.715Z,0.09
2023-03-11T13:19:27.224Z,0.18
2023-03-11T13:21:11.496Z,0.13
2023-03-11T13:22:53.864Z,0.22
2023-03-11T13:24:26.896Z,0.24
2023-03-11T13:25:49.499Z,0.11
2023-03-11T13:27:32.578Z,0.27
2023-03-11T13:29:04.809Z,0.28
2023-03-11T13:30:32.788Z,0.24
2023-03-11T13:32:16.754Z,0.20
2023-03-11T13:33:39.419Z,0.21
2023-03-11T13:35:23.993Z,0.23
2023-03-11T13:36:56.374Z,0.22
2023-03-11T13:38:19.539Z,0.18
2023-03-11T13:40:03.573Z,0.16
2023-03-11T13:41:46.907Z,0.16
2023-03-11T13:43:26.223Z,0.14
2023-03-11T13:45:10.823Z,0.09
2023-03-11T13:46:54.811Z,0.07
2023-03-11T13:48:23.450Z,0.10
2023-03-11T13:49:57.650Z,0.09
2023-03-11T13:51:22.842Z,0.11
2023-03-11T13:53:01.974Z,0.10
2023-03-11T13:54:45.190Z,0.12
2023-03-11T13:56:39.203Z,0.12
2023-03-11T13:58:22.749Z,0.19
2023-03-11T14:00:10.583Z,0.17
2023-03-11T14:01:54.206Z,0.28
2023-03-11T14:03:26.496Z,0.36
2023-03-11T14:05:01.259Z,0.35
2023-03-11T14:06:44.086Z,0.39
2023-03-11T14:08:37.183Z,0.47
2023-03-11T14:10:11.553Z,0.50
2023-03-11T14:12:03.612Z,0.53
2023-03-11T14:13:40.675Z,0.45
2023-03-11T14:15:20.058Z,0.42
2023-03-11T14:17:05.425Z,0.44
2023-03-11T14:18:34.891Z,0.46
2023-03-11T14:20:15.656Z,0.44
2023-03-11T14:21:49.069Z,0.49
2023-03-11T14:23:24.417Z,0.49
2023-03-11T14:25:04.399Z,0.47
2023-03-11T14:26:38.551Z,0.52
2023-03-11T14:28:02.220Z,0.49
2023-03-11T14:29:34.373Z,0.47
2023-03-11T14:31:18.299Z,0.48
2023-03-11T14:33:02.311Z,0.36
2023-03-11T14:34:34.492Z,0.36
2023-03-11T14:36:06.624Z,0.35
2023-03-11T14:37:38.200Z,0.38
2023-03-11T14:39:22.310Z,0.29
2023-03-11T14:41:11.205Z,0.24
2023-03-11T14:42:55.112Z,0.21
2023-03-11T14:44:48.345Z,0.16
2023-03-11T14:46:20.503Z,0.23
2023-03-11T14:48:04.551Z,0.24
2023-03-11T14:49:24.700Z,0.35
2023-03-11T14:50:48.589Z,0.39
2023-03-11T14:52:32.467Z,0.35
2023-03-11T14:54:16.393Z,0.32
2023-03-11T14:56:06.073Z,0.34
2023-03-11T14:57:59.158Z,0.22
2023-03-11T14:59:34.385Z,0.14
2023-03-11T15:01:09.133Z,0.14
2023-03-11T15:02:48.289Z,0.13
2023-03-11T15:04:23.079Z,0.16
2023-03-11T15:06:02.714Z,0.09
2023-03-11T15:07:22.606Z,0.14
2023-03-11T15:09:06.378Z,0.09
2023-03-11T15:10:38.038Z,-0.05
2023-03-11T15:12:19.364Z,0.06
2023-03-11T15:14:06.805Z,0.11
2023-03-11T15:15:50.314Z,0.07
2023-03-11T15:17:39.899Z,-0.01
2023-03-11T15:19:04.261Z,0.09
2023-03-11T15:20:27.255Z,0.09
2023-03-11T15:22:06.452Z,0.04
2023-03-11T15:23:38.184Z,-0.02
2023-03-11T15:25:19.825Z,-0.05
2023-03-11T15:27:00.855Z,-0.07
2023-03-11T15:28:33.641Z,-0.03
2023-03-11T15:30:06.436Z,-0.01
2023-03-11T15:31:45.741Z,0.07
2023-03-11T15:33:39.291Z,0.13
2023-03-11T15:35:11.730Z,0.11
2023-03-11T15:37:06.440Z,0.09
2023-03-11T15:38:59.161Z,0.14
2023-03-11T15:40:45.688Z,0.27
2023-03-11T15:42:17.907Z,0.32
2023-03-11T15:44:11.252Z,0.38
2023-03-11T15:45:54.901Z,0.40
2023-03-11T15:47:29.515Z,0.38
2023-03-11T15:49:13.586Z,0.31
2023-03-11T15:50:54.149Z,0.19
2023-03-11T15:52:38.077Z,0.24
2023-03-11T15:54:10.527Z,0.15
2023-03-11T15:58:05.227Z,0.14
2023-03-11T15:59:48.872Z,0.16
2023-03-11T16:01:34.105Z,0.17
2023-03-11T16:03:17.556Z,0.16
2023-03-11T16:05:10.422Z,0.12
2023-03-11T16:07:07.063Z,0.15
2023-03-11T16:08:41.181Z,0.13
2023-03-11T16:10:13.419Z,0.08
2023-03-11T16:11:57.322Z,0.24
2023-03-11T16:13:40.796Z,0.22
2023-03-11T16:15:24.021Z,0.20
2023-03-11T16:17:08.077Z,0.17
2023-03-11T16:18:40.009Z,0.18
2023-03-11T16:20:12.916Z,0.17
2023-03-11T16:22:05.214Z,0.18
2023-03-11T16:23:25.805Z,0.10
2023-03-11T16:25:19.240Z,0.06
2023-03-11T16:27:03.116Z,0.06
2023-03-11T16:28:37.460Z,0.16
2023-03-11T16:30:11.832Z,0.19
2023-03-11T16:31:53.471Z,0.21
2023-03-11T16:33:33.033Z,0.23
2023-03-11T16:35:18.573Z,0.30
2023-03-11T16:36:53.501Z,0.24
2023-03-11T16:38:26.121Z,0.19
2023-03-11T16:39:58.680Z,0.20
2023-03-11T16:41:38.002Z,0.22
2023-03-11T16:43:22.126Z,0.10
2023-03-11T16:45:15.122Z,0.06
2023-03-11T16:46:37.746Z,0.08
2023-03-11T16:48:02.839Z,0.00
2023-03-11T16:49:34.480Z,0.10
2023-03-11T16:51:07.174Z,0.11
2023-03-11T16:52:34.823Z,0.19
2023-03-11T16:54:09.704Z,-0.04
2023-03-11T16:55:37.485Z,0.13
2023-03-11T16:57:21.869Z,0.07
2023-03-11T16:58:54.191Z,0.10
2023-03-11T17:00:37.475Z,0.05
2023-03-11T17:02:12.391Z,0.07
2023-03-11T17:03:55.552Z,0.07
2023-03-11T17:05:29.463Z,0.15
2023-03-11T17:07:09.127Z,0.18
2023-03-11T17:08:53.445Z,0.13
2023-03-11T17:10:38.561Z,-0.09
2023-03-11T17:12:24.353Z,0.18
2023-03-11T17:14:03.299Z,0.15
2023-03-11T17:15:54.220Z,0.06
2023-03-11T17:17:24.740Z,-0.06
2023-03-11T17:19:08.788Z,-0.09
2023-03-11T17:20:55.335Z,0.00
2023-03-11T17:22:38.943Z,-0.03
2023-03-11T17:24:09.146Z,-0.02
2023-03-11T17:25:31.228Z,-0.05
2023-03-11T17:27:15.430Z,-0.05
2023-03-11T17:28:44.990Z,-0.00
2023-03-11T17:30:36.451Z,-0.22
2023-03-11T17:32:20.872Z,-0.02
2023-03-11T17:34:04.677Z,-0.06
2023-03-11T17:35:53.356Z,-0.03
2023-03-11T17:37:19.235Z,-0.01
2023-03-11T17:38:46.529Z,-0.00
2023-03-11T17:40:18.765Z,-0.02
2023-03-11T17:41:57.306Z,-0.04
2023-03-11T17:43:36.627Z,-0.01
2023-03-11T17:45:20.618Z,-0.03
2023-03-11T17:46:56.022Z,-0.03
2023-03-11T17:48:28.078Z,-0.00
2023-03-11T17:50:12.282Z,-0.01
2023-03-11T17:52:02.019Z,-0.02
2023-03-11T17:53:21.950Z,-0.12
2023-03-11T17:55:05.212Z,0.03
2023-03-11T17:56:49.002Z,-0.01
2023-03-11T17:58:21.204Z,-0.04
2023-03-11T18:00:10.138Z,-0.06
2023-03-11T18:01:45.308Z,-0.03
2023-03-11T18:03:08.992Z,-0.09
2023-03-11T18:04:58.299Z,-0.09
2023-03-11T18:06:30.116Z,-0.11
2023-03-11T18:08:02.353Z,-0.10
2023-03-11T18:09:41.646Z,-0.14
2023-03-11T18:11:18.788Z,-0.18
2023-03-11T18:12:51.437Z,-0.22
2023-03-11T18:14:18.840Z,-0.23
2023-03-11T18:16:02.343Z,-0.30
2023-03-11T18:17:30.000Z,-0.25
2023-03-11T18:18:58.078Z,-0.32
2023-03-11T18:20:51.147Z,-0.33
2023-03-11T18:22:35.457Z,-0.40
2023-03-11T18:24:19.950Z,-0.40
2023-03-11T18:25:45.061Z,-0.42
2023-03-11T18:27:28.188Z,-0.40
2023-03-11T18:29:24.251Z,-0.35
2023-03-11T18:31:08.636Z,-0.40
2023-03-11T18:32:55.381Z,-0.40
2023-03-11T18:34:29.996Z,-0.54
2023-03-11T18:36:02.725Z,-0.46
2023-03-11T18:37:34.477Z,-0.49
2023-03-11T18:39:11.553Z,-0.54
2023-03-11T18:40:47.615Z,-0.56
2023-03-11T18:42:21.955Z,-0.53
2023-03-11T18:44:05.592Z,-0.60
2023-03-11T18:45:28.088Z,-0.56
2023-03-11T18:47:09.182Z,-0.60
2023-03-11T18:48:40.735Z,-0.61
2023-03-11T18:50:13.282Z,-0.64
2023-03-11T18:51:56.996Z,-0.61
2023-03-11T18:53:36.396Z,-0.64
2023-03-11T18:54:57.724Z,-0.60
2023-03-11T18:56:30.473Z,-0.61
2023-03-11T18:58:15.520Z,-0.60
2023-03-11T19:00:04.248Z,-0.61
2023-03-11T19:01:34.600Z,-0.61
2023-03-11T19:03:09.845Z,-0.65
2023-03-11T19:04:54.360Z,-0.64
2023-03-11T19:06:17.350Z,-0.66
2023-03-11T19:07:40.281Z,-0.66
2023-03-11T19:09:05.970Z,-0.68
2023-03-11T19:10:49.838Z,-0.68
2023-03-11T19:12:22.873Z,-0.69
2023-03-11T19:13:47.682Z,-0.67
2023-03-11T19:15:22.531Z,-0.71
2023-03-11T19:16:54.873Z,-0.70
2023-03-11T19:18:32.805Z,-0.72
2023-03-11T19:20:03.529Z,-0.73
2023-03-11T19:21:28.021Z,-0.72
2023-03-11T19:22:59.712Z,-0.84
2023-03-11T19:24:29.788Z,-0.70
2023-03-11T19:26:05.385Z,-0.73
2023-03-11T19:27:49.526Z,-0.71
2023-03-11T19:29:10.816Z,-0.76
2023-03-11T19:30:31.318Z,-0.70
2023-03-11T19:31:51.746Z,-0.73
2023-03-11T19:33:35.521Z,-0.75
2023-03-11T19:35:10.176Z,-0.70
2023-03-11T19:36:52.409Z,-0.64
2023-03-11T19:38:24.704Z,-0.66
2023-03-11T19:40:10.996Z,-0.66
2023-03-11T19:41:51.033Z,-0.63
2023-03-11T19:43:14.157Z,-0.64
2023-03-11T19:44:49.367Z,-0.60
2023-03-11T19:46:12.731Z,-0.59
2023-03-11T19:47:52.225Z,-0.53
2023-03-11T19:49:21.356Z,-0.50
2023-03-11T19:51:05.270Z,-0.49
2023-03-11T19:52:44.558Z,-0.46
2023-03-11T19:54:13.114Z,-0.43
2023-03-11T19:55:33.584Z,-0.43
2023-03-11T19:56:56.736Z,-0.46
2023-03-11T19:58:19.178Z,-0.42
2023-03-11T20:00:02.697Z,-0.43
2023-03-11T20:01:27.579Z,-0.38
2023-03-11T20:03:11.841Z,-0.39
2023-03-11T20:04:44.090Z,-0.35
2023-03-11T20:06:29.402Z,-0.34
2023-03-11T20:08:23.197Z,-0.32
2023-03-11T20:09:57.255Z,-0.32
2023-03-11T20:11:38.127Z,-0.29
2023-03-11T20:13:10.496Z,-0.36
2023-03-11T20:14:52.945Z,-0.36
2023-03-11T20:16:18.645Z,-0.35
2023-03-11T20:17:41.691Z,-0.36
2023-03-11T20:19:21.686Z,-0.34
2023-03-11T20:20:54.738Z,-0.34
2023-03-11T20:22:22.622Z,-0.27
2023-03-11T20:23:50.467Z,-0.26
2023-03-11T20:25:25.172Z,-0.39
2023-03-11T20:27:08.873Z,-0.31
2023-03-11T20:28:29.413Z,-0.26
2023-03-11T20:30:13.422Z,-0.28
2023-03-11T20:31:57.247Z,-0.26
2023-03-11T20:33:31.678Z,-0.27
2023-03-11T20:35:15.570Z,-0.26
2023-03-11T20:36:59.593Z,-0.22
2023-03-11T20:38:34.591Z,-0.17
2023-03-11T20:40:07.293Z,-0.19
2023-03-11T20:41:39.221Z,-0.18
2023-03-11T20:43:14.204Z,-0.15
2023-03-11T20:44:46.148Z,-0.17
2023-03-11T20:46:18.170Z,-0.16
2023-03-11T20:48:02.011Z,-0.20
2023-03-11T20:49:41.580Z,-0.17
2023-03-11T20:51:25.671Z,-0.20
2023-03-11T20:52:57.633Z,-0.18
2023-03-11T20:54:46.202Z,-0.16
2023-03-11T20:56:19.215Z,-0.18
2023-03-11T20:58:02.802Z,-0.14
2023-03-11T20:59:34.596Z,-0.16
2023-03-11T21:01:19.149Z,-0.21
2023-03-11T21:02:51.764Z,-0.18
2023-03-11T21:04:24.597Z,-0.15
2023-03-11T21:05:59.355Z,-0.15
2023-03-11T21:07:26.851Z,-0.11
2023-03-11T21:08:47.398Z,-0.13
2023-03-11T21:10:19.496Z,-0.12
2023-03-11T21:12:02.968Z,-0.12
2023-03-11T21:13:47.133Z,-0.08
2023-03-11T21:15:19.800Z,-0.12
2023-03-11T21:16:43.164Z,-0.13
2023-03-11T21:18:06.238Z,-0.19
2023-03-11T21:19:31.387Z,-0.16
2023-03-11T21:21:10.869Z,-0.21
2023-03-11T21:22:33.709Z,-0.13
2023-03-11T21:24:06.224Z,-0.18
2023-03-11T21:25:41.958Z,-0.13
2023-03-11T21:27:29.152Z,-0.18
2023-03-11T21:28:59.964Z,-0.21
2023-03-11T21:30:20.665Z,-0.19
2023-03-11T21:32:04.479Z,-0.19
2023-03-11T21:33:25.194Z,-0.16
2023-03-11T21:34:57.866Z,-0.19
2023-03-11T21:36:23.649Z,-0.09
2023-03-11T21:37:46.752Z,-0.14
2023-03-11T21:39:17.088Z,-0.15
2023-03-11T21:40:37.828Z,-0.17
2023-03-11T21:42:10.732Z,-0.20